• Join FlightAware (Why Join?)
  • Login
  • US Flag 
04:24AM EDT


 

Airport Tracker/Info


-or-


 

Live Flight TrackerFlight Track Log ✈ CPZ5750 ✈ 08-Jul-2013 ✈ KALB - KMSP

Flight Track Log - Related Links

Times and Time Zones

All times are in EDT time to prevent confusion due to time zone crossing. See the CPZ5750 flight status page for this flight to view local times or setup timezone preferences in your user account.

Time Position Orientation Groundspeed Altitude Reporting Facility
EDT Latitude Longitude Course Direction KTS MPH feet Rate Location/Type
07:39PM 42.8089 -73.8100 359° North 167 192 2,400  Level Boston Center
07:40PM 42.8692 -73.8281 348° North 235 270 4,300 2,100 Climbing Boston Center
07:41PM 42.9034 -74.3300 289° West  Level FlightAware Approximate
07:41PM 42.8911 -73.9053 291° West 265 305 6,400  Level Boston Center
07:42PM 42.9383 -74.4697 289° West  Level FlightAware Approximate
07:42PM 42.9169 -74.0050 290° West 275 316 9,500  Level Boston Center
07:43PM 42.9762 -74.6081 291° West  Level FlightAware Approximate
07:43PM 42.9406 -74.1022 288° West 288 331 11,800  Level Boston Center
07:44PM 42.9700 -74.2192 289° West 294 338 14,500 2,100 Climbing Boston Center
07:45PM 42.9956 -74.3194 289° West 305 351 16,000 1,920 Climbing Boston Center
07:46PM 43.0267 -74.4481 288° West 324 373 18,400 2,160 Climbing Boston Center
07:47PM 43.0536 -74.5683 287° West 324 373 20,400 1,800 Climbing Boston Center
07:48PM 43.1039 -74.6697 304° West 316 364 22,000 1,500 Climbing Boston Center
07:49PM 43.2014 -74.6989 348° North 312 359 23,400 1,320 Climbing Boston Center
07:50PM 43.3028 -74.7311 347° North 335 386 24,700 1,260 Climbing Boston Center
07:51PM 43.4083 -74.7636 347° North 364 419 26,000 600 Climbing Boston Center
07:52PM 43.5119 -74.7933 348° North 380 437 26,000  Level Boston Center
07:53PM 43.6089 -74.8458 339° North 380 437 26,000  Level Boston Center
07:54PM 43.6436 -74.9764 290° West 335 386 26,000  Level Boston Center
07:55PM 43.6569 -75.1233 277° West 342 394 26,000  Level Boston Center
07:56PM 43.6803 -75.2822 282° West 388 447 26,000  Level Boston Center
07:57PM 43.7056 -75.4331 283° West 431 496 26,000  Level Boston Center
07:58PM 43.7283 -75.5950 281° West 436 502 26,000  Level Boston Center
07:59PM 43.7528 -75.7572 282° West 436 502 26,000  Level Boston Center
08:00PM 43.7792 -75.9256 282° West 436 502 26,000  Level Boston Center
08:01PM 43.8031 -76.0911 281° West 436 502 26,000  Level Boston Center
08:02PM 43.8289 -76.2567 282° West 436 502 26,000  Level Boston Center
08:03PM 43.8528 -76.4194 282° West 436 502 26,000  Level Boston Center
08:04PM 43.8667 -76.6333 275° West 440 506 26,000  Level Toronto Center
08:05PM 43.8833 -76.7833 279° West 440 506 26,000  Level Toronto Center
08:06PM 43.9000 -76.9500 278° West 440 506 26,000  Level Toronto Center
08:07PM 43.9167 -77.1333 277° West 440 506 26,000  Level Toronto Center
08:08PM 43.9333 -77.3000 278° West 430 495 26,000  Level Toronto Center
08:09PM 43.9667 -77.4333 289° West 420 483 26,000  Level Toronto Center
08:10PM 43.9833 -77.6167 277° West 420 483 26,000  Level Toronto Center
08:11PM 43.9833 -77.7833 270° West 430 495 26,000  Level Toronto Center
08:12PM 44.0000 -77.9167 280° West 430 495 26,000  Level Toronto Center
08:13PM 44.0167 -78.1000 277° West 420 483 26,000  Level Toronto Center
08:14PM 44.0333 -78.2667 278° West 430 495 26,000  Level Toronto Center
08:15PM 44.0500 -78.4333 278° West 440 506 26,000  Level Toronto Center
08:16PM 44.0833 -78.5833 287° West 440 506 26,000  Level Toronto Center
08:17PM 44.0833 -78.7667 270° West 440 506 26,000  Level Toronto Center
08:18PM 44.1000 -78.9333 278° West 440 506 26,000  Level Toronto Center
08:19PM 44.1167 -79.1000 278° West 440 506 26,000  Level Toronto Center
08:20PM 44.1333 -79.2667 278° West 440 506 26,000  Level Toronto Center
08:21PM 44.1500 -79.4167 279° West 440 506 26,000  Level Toronto Center
08:22PM 44.1667 -79.6167 277° West 440 506 26,000  Level Toronto Center
08:23PM 44.1667 -79.7667 270° West 440 506 26,000  Level Toronto Center
08:24PM 44.1833 -79.9500 277° West 430 495 26,000  Level Toronto Center
08:25PM 44.2000 -80.1000 279° West 430 495 26,000  Level Toronto Center
08:26PM 44.2167 -80.2833 277° West 430 495 26,000  Level Toronto Center
08:27PM 44.2333 -80.4500 278° West 430 495 26,000  Level Toronto Center
08:28PM 44.2333 -80.6167 270° West 440 506 26,000  Level Toronto Center
08:29PM 44.2500 -80.7667 279° West 440 506 26,000  Level Toronto Center
08:30PM 44.2500 -80.9333 270° West 440 506 26,000  Level Toronto Center
08:31PM 44.2667 -81.1167 277° West 440 506 26,000  Level Toronto Center
08:32PM 44.2833 -81.2833 278° West 440 506 26,000  Level Toronto Center
08:33PM 44.3000 -81.4667 277° West 440 506 26,000  Level Toronto Center
08:34PM 44.3000 -81.6333 270° West 440 506 26,000  Level Toronto Center
08:35PM 44.3167 -81.8000 278° West 430 495 26,000  Level Toronto Center
08:36PM 44.3167 -81.9667 270° West 430 495 26,000  Level Toronto Center
08:37PM 44.3333 -82.1500 277° West 430 495 26,000  Level Toronto Center
08:38PM 44.3500 -82.2833 280° West 430 495 26,000 120 Level Toronto Center
08:39PM 44.3667 -82.4833 277° West 430 495 26,300 600 Climbing Toronto Center
08:40PM 44.3667 -82.6333 270° West 440 506 27,200 780 Climbing Toronto Center
08:41PM 44.3808 -82.7317 281° West 435 501 27,700 780 Climbing Minneapolis Center
08:42PM 44.3922 -82.9353 275° West 438 504 28,600 780 Climbing Minneapolis Center
08:43PM 44.4006 -83.1050 274° West 439 505 29,400 660 Climbing Minneapolis Center
08:44PM 44.4097 -83.2744 274° West 439 505 30,000 240 Climbing Minneapolis Center
08:45PM 44.4194 -83.4439 275° West 439 505 30,000  Level Minneapolis Center
08:46PM 44.4258 -83.6133 273° West 439 505 30,000  Level Minneapolis Center
08:47PM 44.4356 -83.7822 275° West 437 503 30,000  Level Minneapolis Center
08:48PM 44.4442 -83.9844 273° West 437 503 30,000  Level Minneapolis Center
08:49PM 44.4531 -84.1539 274° West 437 503 30,000  Level Minneapolis Center
08:50PM 44.4592 -84.3239 273° West 438 504 30,000  Level Minneapolis Center
08:51PM 44.4656 -84.4958 273° West 443 510 30,000  Level Minneapolis Center
08:53PM 44.4750 -84.7342 273° West 440 506 30,000  Level Minneapolis Center
08:54PM 44.4833 -84.9392 273° West 441 507 30,000  Level Minneapolis Center
08:55PM 44.4906 -85.1094 273° West 438 504 30,000  Level Minneapolis Center
08:56PM 44.4950 -85.2450 273° West 437 503 30,000  Level Minneapolis Center
08:57PM 44.5014 -85.4492 273° West 437 503 30,000  Level Minneapolis Center
08:58PM 44.5064 -85.6181 272° West 435 501 30,000  Level Minneapolis Center
08:59PM 44.5114 -85.7903 272° West 438 504 30,000  Level Minneapolis Center
09:00PM 44.5158 -85.9633 272° West 440 506 30,000  Level Minneapolis Center
09:01PM 44.5194 -86.1361 272° West 440 506 30,000  Level Minneapolis Center
09:02PM 44.5244 -86.3081 272° West 439 505 30,000  Level Minneapolis Center
09:03PM 44.5294 -86.5147 272° West 439 505 30,000  Level Minneapolis Center
09:04PM 44.5336 -86.6864 272° West 440 506 30,000  Level Minneapolis Center
09:05PM 44.5367 -86.8578 271° West 440 506 30,000  Level Minneapolis Center
09:06PM 44.5406 -87.0292 272° West 440 506 30,000  Level Minneapolis Center
09:07PM 44.5433 -87.2011 271° West 442 509 30,000  Level Minneapolis Center
09:08PM 44.5464 -87.3714 272° West 439 505 30,000  Level Minneapolis Center
09:09PM 44.5497 -87.5767 271° West 437 503 30,000  Level Minneapolis Center
09:10PM 44.5511 -87.7464 271° West 437 503 30,000  Level Minneapolis Center
09:11PM 44.5531 -87.9281 271° West 434 499 30,000  Level Minneapolis Center
09:12PM 44.5547 -88.0956 271° West 432 497 30,000  Level Minneapolis Center
09:13PM 44.5642 -88.2636 275° West 435 501 30,000  Level Minneapolis Center
09:14PM 44.5825 -88.4306 279° West 435 501 30,000  Level Minneapolis Center
09:15PM 44.5986 -88.5717 279° West 439 505 30,000  Level Minneapolis Center
09:16PM 44.6261 -88.7964 280° West 439 505 30,000  Level Minneapolis Center
09:17PM 44.6442 -88.9650 279° West 438 504 30,000  Level Minneapolis Center
09:19PM 44.6628 -89.1339 279° West 438 504 30,000  Level Minneapolis Center
09:20PM 44.6839 -89.3308 279° West 438 504 30,000  Level Minneapolis Center
09:21PM 44.7061 -89.5297 279° West 441 507 30,000  Level Minneapolis Center
09:22PM 44.7242 -89.6994 279° West 441 507 30,000  Level Minneapolis Center
09:23PM 44.7422 -89.8689 279° West 440 506 30,000  Level Minneapolis Center
09:24PM 44.7592 -90.0375 278° West 437 503 30,000  Level Minneapolis Center
09:25PM 44.7789 -90.2358 278° West 439 505 30,000  Level Minneapolis Center
09:26PM 44.7992 -90.4339 278° West 440 506 30,000  Level Minneapolis Center
09:27PM 44.8197 -90.5831 281° West 438 504 30,000  Level Minneapolis Center
09:28PM 44.8436 -90.7528 281° West 443 510 30,000  Level Minneapolis Center
09:29PM 44.8706 -90.9556 281° West 441 507 30,000 -60 Level Minneapolis Center
09:30PM 44.8992 -91.1583 281° West 441 507 29,900 -1,320 Descending Minneapolis Center
09:31PM 44.9214 -91.3267 281° West 441 507 27,300 -2,520 Descending Minneapolis Center
09:33PM 44.9439 -91.4867 281° West 427 491 24,300 -2,820 Descending Minneapolis Center
09:34PM 44.9678 -91.6678 281° West 401 461 21,000 -3,240 Descending Minneapolis Center
09:35PM 44.9925 -91.8461 281° West 389 448 17,700 -2,940 Descending Minneapolis Center
09:36PM 45.0119 -91.9922 281° West 380 437 15,000 -2,580 Descending Minneapolis Center
09:37PM 45.0294 -92.1311 280° West 363 418 12,500 -1,980 Descending Minneapolis Center
09:38PM 45.0461 -92.2664 280° West 354 407 11,000 -780 Descending Minneapolis Center
09:39PM 45.0308 -92.4050 261° West 359 413 11,000 -120 Level Minneapolis Center
09:40PM 44.9994 -92.5372 251° West 359 413 10,800 -540 Descending Minneapolis Center
09:41PM 44.9419 -92.6308 229° Southwest 314 361 9,900 -1,260 Descending Minneapolis Center
09:42PM 44.8906 -92.7161 230° Southwest 288 331 8,300 -1,680 Descending Minneapolis Center
09:43PM 44.8319 -92.8158 230° Southwest 276 318 6,200 -1,380 Descending Minneapolis Center
09:44PM 44.7772 -92.9125 231° Southwest 262 302 5,200 -1,080 Descending Minneapolis Center
09:45PM 44.7867 -92.9989 279° West 228 262 4,000 -1,200 Descending Minneapolis Center